sensor_id;sensor_type;location;lat;lon;timestamp;temperature;humidity
31629;DHT22;18240;52.004;5.554;2022-07-05T01:10:31;24.70;91.40
31629;DHT22;18240;52.004;5.554;2022-07-05T01:12:58;20.20;97.90
31629;DHT22;18240;52.004;5.554;2022-07-05T01:15:25;20.10;97.80
31629;DHT22;18240;52.004;5.554;2022-07-05T01:17:53;20.00;97.80
31629;DHT22;18240;52.004;5.554;2022-07-05T01:20:20;20.00;97.80
31629;DHT22;18240;52.004;5.554;2022-07-05T01:29:56;20.10;97.80
31629;DHT22;18240;52.004;5.554;2022-07-05T01:38:15;20.20;97.60
31629;DHT22;18240;52.004;5.554;2022-07-05T01:40:43;20.10;97.80
31629;DHT22;18240;52.004;5.554;2022-07-05T01:43:09;20.20;97.80
31629;DHT22;18240;52.004;5.554;2022-07-05T01:45:36;20.20;98.10
31629;DHT22;18240;52.004;5.554;2022-07-05T01:48:13;20.10;97.80
31629;DHT22;18240;52.004;5.554;2022-07-05T01:50:54;20.00;97.80
31629;DHT22;18240;52.004;5.554;2022-07-05T01:53:24;20.10;98.20
31629;DHT22;18240;52.004;5.554;2022-07-05T01:55:55;20.20;97.90
31629;DHT22;18240;52.004;5.554;2022-07-05T04:32:35;20.00;97.90
31629;DHT22;18240;52.004;5.554;2022-07-05T04:35:04;20.20;99.90
31629;DHT22;18240;52.004;5.554;2022-07-05T04:37:31;20.30;99.90
31629;DHT22;18240;52.004;5.554;2022-07-05T04:39:59;20.30;99.90
31629;DHT22;18240;52.004;5.554;2022-07-05T04:42:26;20.40;99.90
31629;DHT22;18240;52.004;5.554;2022-07-05T04:44:53;20.50;99.90
31629;DHT22;18240;52.004;5.554;2022-07-05T11:31:46;20.50;99.90
31629;DHT22;18240;52.004;5.554;2022-07-05T11:34:13;28.60;84.40
31629;DHT22;18240;52.004;5.554;2022-07-05T12:30:03;28.70;84.90
31629;DHT22;18240;52.004;5.554;2022-07-05T12:58:01;28.30;85.80
31629;DHT22;18240;52.004;5.554;2022-07-05T13:00:31;28.00;84.60
31629;DHT22;18240;52.004;5.554;2022-07-05T13:12:49;28.00;84.90
31629;DHT22;18240;52.004;5.554;2022-07-05T13:15:16;28.50;83.40
31629;DHT22;18240;52.004;5.554;2022-07-05T16:36:14;28.80;82.60
31629;DHT22;18240;52.004;5.554;2022-07-05T16:38:44;28.20;80.80
31629;DHT22;18240;52.004;5.554;2022-07-05T16:41:11;28.00;81.40
31629;DHT22;18240;52.004;5.554;2022-07-05T16:43:40;28.10;81.90
31629;DHT22;18240;52.004;5.554;2022-07-05T16:46:09;28.10;80.70
31629;DHT22;18240;52.004;5.554;2022-07-05T16:48:37;27.90;81.10
31629;DHT22;18240;52.004;5.554;2022-07-05T16:51:09;27.80;81.60
31629;DHT22;18240;52.004;5.554;2022-07-05T16:53:36;27.80;82.10
31629;DHT22;18240;52.004;5.554;2022-07-05T16:56:04;27.80;83.40
31629;DHT22;18240;52.004;5.554;2022-07-05T16:58:52;27.90;84.40
31629;DHT22;18240;52.004;5.554;2022-07-05T17:01:23;27.70;84.60
31629;DHT22;18240;52.004;5.554;2022-07-05T17:03:51;27.60;84.40
31629;DHT22;18240;52.004;5.554;2022-07-05T17:06:18;27.50;84.40
31629;DHT22;18240;52.004;5.554;2022-07-05T17:08:45;27.50;84.60
31629;DHT22;18240;52.004;5.554;2022-07-05T17:11:13;27.60;84.90
31629;DHT22;18240;52.004;5.554;2022-07-05T17:13:41;27.70;85.50
31629;DHT22;18240;52.004;5.554;2022-07-05T17:16:18;27.70;86.40
31629;DHT22;18240;52.004;5.554;2022-07-05T17:18:46;27.70;84.90
31629;DHT22;18240;52.004;5.554;2022-07-05T17:21:13;27.60;88.10
31629;DHT22;18240;52.004;5.554;2022-07-05T17:23:41;27.30;87.60
31629;DHT22;18240;52.004;5.554;2022-07-05T17:26:12;27.10;88.20
31629;DHT22;18240;52.004;5.554;2022-07-05T17:28:42;27.00;85.80
31629;DHT22;18240;52.004;5.554;2022-07-05T17:31:09;27.00;87.00
31629;DHT22;18240;52.004;5.554;2022-07-05T17:33:36;26.90;85.40
31629;DHT22;18240;52.004;5.554;2022-07-05T17:36:03;26.90;87.30
31629;DHT22;18240;52.004;5.554;2022-07-05T17:38:32;26.90;86.30
31629;DHT22;18240;52.004;5.554;2022-07-05T17:41:00;27.10;87.00
31629;DHT22;18240;52.004;5.554;2022-07-05T17:43:26;27.10;86.00
31629;DHT22;18240;52.004;5.554;2022-07-05T17:45:53;27.20;86.00
31629;DHT22;18240;52.004;5.554;2022-07-05T17:48:20;27.50;86.00
31629;DHT22;18240;52.004;5.554;2022-07-05T17:50:47;27.40;85.50
31629;DHT22;18240;52.004;5.554;2022-07-05T17:53:17;27.30;85.50
31629;DHT22;18240;52.004;5.554;2022-07-05T17:55:45;27.30;85.60
31629;DHT22;18240;52.004;5.554;2022-07-05T17:58:12;27.40;85.90
31629;DHT22;18240;52.004;5.554;2022-07-05T18:00:39;27.40;86.00
31629;DHT22;18240;52.004;5.554;2022-07-05T18:03:06;27.30;84.70
31629;DHT22;18240;52.004;5.554;2022-07-05T18:05:32;27.30;85.30
31629;DHT22;18240;52.004;5.554;2022-07-05T18:07:59;27.10;84.30
31629;DHT22;18240;52.004;5.554;2022-07-05T18:10:26;27.00;84.60
31629;DHT22;18240;52.004;5.554;2022-07-05T18:12:55;27.00;85.00
31629;DHT22;18240;52.004;5.554;2022-07-05T18:15:22;27.00;85.30
31629;DHT22;18240;52.004;5.554;2022-07-05T18:17:49;26.90;83.70
31629;DHT22;18240;52.004;5.554;2022-07-05T18:20:17;27.00;84.20
31629;DHT22;18240;52.004;5.554;2022-07-05T18:22:44;26.90;82.40
31629;DHT22;18240;52.004;5.554;2022-07-05T18:25:11;27.10;83.20
31629;DHT22;18240;52.004;5.554;2022-07-05T18:27:38;27.00;82.20
31629;DHT22;18240;52.004;5.554;2022-07-05T18:30:05;26.90;79.80
31629;DHT22;18240;52.004;5.554;2022-07-05T18:32:32;26.80;79.60
31629;DHT22;18240;52.004;5.554;2022-07-05T18:34:59;26.70;80.30
31629;DHT22;18240;52.004;5.554;2022-07-05T18:37:26;26.60;81.60
31629;DHT22;18240;52.004;5.554;2022-07-05T18:39:53;26.60;82.20
31629;DHT22;18240;52.004;5.554;2022-07-05T18:42:19;26.50;80.00
31629;DHT22;18240;52.004;5.554;2022-07-05T18:44:46;26.40;80.30
31629;DHT22;18240;52.004;5.554;2022-07-05T18:47:13;26.50;80.30
31629;DHT22;18240;52.004;5.554;2022-07-05T18:49:40;26.50;80.60
31629;DHT22;18240;52.004;5.554;2022-07-05T18:52:07;26.40;81.50
31629;DHT22;18240;52.004;5.554;2022-07-05T18:54:34;26.30;80.10
31629;DHT22;18240;52.004;5.554;2022-07-05T18:57:00;26.40;79.70
31629;DHT22;18240;52.004;5.554;2022-07-05T18:59:28;26.20;79.70
31629;DHT22;18240;52.004;5.554;2022-07-05T19:01:55;25.90;80.10
31629;DHT22;18240;52.004;5.554;2022-07-05T19:04:25;25.90;80.20
31629;DHT22;18240;52.004;5.554;2022-07-05T19:06:53;25.70;80.40
31629;DHT22;18240;52.004;5.554;2022-07-05T19:09:38;25.50;80.00
31629;DHT22;18240;52.004;5.554;2022-07-05T19:12:24;25.20;80.30
31629;DHT22;18240;52.004;5.554;2022-07-05T19:15:10;25.10;80.90
31629;DHT22;18240;52.004;5.554;2022-07-05T19:17:37;24.90;80.90
31629;DHT22;18240;52.004;5.554;2022-07-05T19:20:04;24.60;81.20
31629;DHT22;18240;52.004;5.554;2022-07-05T19:22:31;24.60;81.60
31629;DHT22;18240;52.004;5.554;2022-07-05T19:24:58;24.60;81.30
31629;DHT22;18240;52.004;5.554;2022-07-05T19:27:25;24.50;81.30
31629;DHT22;18240;52.004;5.554;2022-07-05T19:29:52;24.00;81.80
31629;DHT22;18240;52.004;5.554;2022-07-05T19:32:19;24.10;81.90
31629;DHT22;18240;52.004;5.554;2022-07-05T19:34:47;24.10;82.20
31629;DHT22;18240;52.004;5.554;2022-07-05T19:37:14;24.10;82.20
31629;DHT22;18240;52.004;5.554;2022-07-05T19:39:42;24.10;82.40
31629;DHT22;18240;52.004;5.554;2022-07-05T19:42:09;24.00;82.60
31629;DHT22;18240;52.004;5.554;2022-07-05T19:44:35;23.80;83.00
31629;DHT22;18240;52.004;5.554;2022-07-05T19:47:02;23.80;83.40
31629;DHT22;18240;52.004;5.554;2022-07-05T19:49:30;23.60;83.70
31629;DHT22;18240;52.004;5.554;2022-07-05T19:51:57;23.50;84.30
31629;DHT22;18240;52.004;5.554;2022-07-05T19:54:32;23.50;84.30
31629;DHT22;18240;52.004;5.554;2022-07-05T19:57:00;23.30;84.60
31629;DHT22;18240;52.004;5.554;2022-07-05T19:59:27;23.30;85.20
31629;DHT22;18240;52.004;5.554;2022-07-05T20:01:54;23.20;85.40
31629;DHT22;18240;52.004;5.554;2022-07-05T20:04:21;23.10;85.80
31629;DHT22;18240;52.004;5.554;2022-07-05T20:06:49;23.00;86.00
31629;DHT22;18240;52.004;5.554;2022-07-05T20:09:18;22.90;86.40
31629;DHT22;18240;52.004;5.554;2022-07-05T20:11:47;22.80;86.70
31629;DHT22;18240;52.004;5.554;2022-07-05T20:14:30;22.80;86.90
31629;DHT22;18240;52.004;5.554;2022-07-05T20:16:56;22.80;87.50
31629;DHT22;18240;52.004;5.554;2022-07-05T20:19:32;22.90;87.40
31629;DHT22;18240;52.004;5.554;2022-07-05T20:21:59;22.90;87.50
31629;DHT22;18240;52.004;5.554;2022-07-05T20:24:26;22.80;87.30
31629;DHT22;18240;52.004;5.554;2022-07-05T20:26:53;22.80;87.70
31629;DHT22;18240;52.004;5.554;2022-07-05T20:29:20;22.70;88.00
31629;DHT22;18240;52.004;5.554;2022-07-05T20:31:52;22.60;88.80
31629;DHT22;18240;52.004;5.554;2022-07-05T20:34:19;22.50;88.70
31629;DHT22;18240;52.004;5.554;2022-07-05T20:36:46;22.60;88.90
31629;DHT22;18240;52.004;5.554;2022-07-05T20:39:13;22.50;88.90
31629;DHT22;18240;52.004;5.554;2022-07-05T20:41:43;22.50;88.80
31629;DHT22;18240;52.004;5.554;2022-07-05T20:44:10;22.40;89.40
31629;DHT22;18240;52.004;5.554;2022-07-05T20:46:37;22.40;89.40
31629;DHT22;18240;52.004;5.554;2022-07-05T20:49:04;22.20;89.60
31629;DHT22;18240;52.004;5.554;2022-07-05T20:51:33;22.10;90.00
31629;DHT22;18240;52.004;5.554;2022-07-05T20:54:00;22.10;90.00
31629;DHT22;18240;52.004;5.554;2022-07-05T20:56:27;21.90;90.20
31629;DHT22;18240;52.004;5.554;2022-07-05T20:58:53;22.00;90.30
31629;DHT22;18240;52.004;5.554;2022-07-05T21:01:20;22.00;90.20
31629;DHT22;18240;52.004;5.554;2022-07-05T21:03:48;22.00;90.30
31629;DHT22;18240;52.004;5.554;2022-07-05T21:21:55;22.00;90.30
31629;DHT22;18240;52.004;5.554;2022-07-05T21:24:29;21.40;91.40
